createdAt,value
2023-05-16T00:01:30.589Z,3.45
2023-05-16T00:06:33.655Z,4.18
2023-05-16T00:11:36.313Z,5.10
2023-05-16T00:16:39.401Z,3.70
2023-05-16T00:21:42.186Z,5.88
2023-05-16T00:26:45.146Z,3.38
2023-05-16T00:31:47.967Z,3.60
2023-05-16T00:36:51.246Z,3.50
2023-05-16T00:41:54.494Z,4.10
2023-05-16T00:46:57.665Z,4.15
2023-05-16T00:52:01.262Z,3.78
2023-05-16T00:57:05.123Z,4.28
2023-05-16T01:02:07.839Z,3.40
2023-05-16T01:07:10.773Z,5.00
2023-05-16T01:12:38.664Z,4.57
2023-05-16T01:18:01.400Z,5.07
2023-05-16T01:23:23.957Z,3.20
2023-05-16T01:28:27.638Z,4.57
2023-05-16T01:33:30.706Z,4.22
2023-05-16T01:39:04.683Z,3.92
2023-05-16T01:44:18.230Z,3.90
2023-05-16T01:49:49.947Z,4.20
2023-05-16T01:54:57.990Z,3.80
2023-05-16T02:00:01.116Z,3.70
2023-05-16T02:05:04.221Z,7.57
2023-05-16T02:10:07.677Z,4.07
2023-05-16T02:15:11.443Z,6.63
2023-05-16T02:20:15.252Z,4.33
2023-05-16T02:25:18.121Z,5.40
2023-05-16T02:30:20.901Z,5.50
2023-05-16T02:35:23.887Z,4.40
2023-05-16T02:40:26.816Z,5.13
2023-05-16T02:45:29.626Z,6.37
2023-05-16T02:50:32.482Z,4.70
2023-05-16T02:55:35.147Z,6.85
2023-05-16T03:00:37.845Z,4.28
2023-05-16T03:05:40.793Z,5.55
2023-05-16T03:10:43.509Z,4.93
2023-05-16T03:15:46.699Z,4.88
2023-05-16T03:20:49.392Z,4.70
2023-05-16T03:25:52.132Z,4.82
2023-05-16T03:30:56.781Z,5.10
2023-05-16T03:35:59.746Z,5.83
2023-05-16T03:41:02.854Z,5.07
2023-05-16T03:46:05.773Z,4.47
2023-05-16T03:51:08.671Z,5.07
2023-05-16T03:56:11.361Z,5.47
2023-05-16T04:01:14.308Z,6.73
2023-05-16T04:06:18.090Z,6.63
2023-05-16T04:11:21.676Z,4.90
2023-05-16T04:16:24.571Z,5.22
2023-05-16T04:21:27.307Z,6.88
2023-05-16T04:26:30.649Z,5.37
2023-05-16T04:31:33.426Z,5.60
2023-05-16T04:36:36.305Z,6.60
2023-05-16T04:41:39.110Z,5.22
2023-05-16T04:46:42.083Z,6.15
2023-05-16T04:51:45.304Z,6.33
2023-05-16T04:56:48.215Z,7.40
2023-05-16T05:01:51.511Z,8.05
2023-05-16T05:06:54.615Z,11.02
2023-05-16T05:11:57.688Z,8.15
2023-05-16T05:17:00.784Z,6.77
2023-05-16T05:22:03.999Z,6.82
2023-05-16T05:27:07.072Z,6.93
2023-05-16T05:32:10.011Z,5.47
2023-05-16T05:37:13.116Z,5.68
2023-05-16T05:42:16.205Z,5.73
2023-05-16T05:47:19.672Z,5.45
2023-05-16T05:52:22.953Z,5.25
2023-05-16T05:57:26.270Z,7.47
2023-05-16T06:02:29.748Z,5.55
2023-05-16T06:07:32.710Z,5.50
2023-05-16T06:12:36.251Z,5.80
2023-05-16T06:17:39.274Z,5.70
2023-05-16T06:22:42.158Z,6.60
2023-05-16T06:27:45.091Z,5.95
2023-05-16T06:32:47.906Z,5.80
2023-05-16T06:37:50.916Z,6.72
2023-05-16T06:42:53.886Z,8.93
2023-05-16T06:47:57.639Z,8.23
2023-05-16T06:53:00.971Z,6.72
2023-05-16T06:58:03.910Z,8.17
2023-05-16T07:03:07.085Z,7.18
2023-05-16T07:08:13.089Z,6.80
2023-05-16T07:13:16.095Z,7.95
2023-05-16T07:18:19.259Z,6.65
2023-05-16T07:23:22.640Z,7.03
2023-05-16T07:28:25.645Z,9.60
2023-05-16T07:33:28.724Z,9.77
2023-05-16T07:38:31.826Z,7.65
2023-05-16T07:43:37.296Z,8.00
2023-05-16T07:48:40.189Z,10.43
2023-05-16T07:53:43.291Z,7.97
2023-05-16T07:58:46.538Z,8.20
2023-05-16T08:03:49.667Z,6.28
2023-05-16T08:08:52.594Z,7.70
2023-05-16T08:13:55.386Z,7.87
2023-05-16T08:18:58.532Z,9.70
2023-05-16T08:24:01.769Z,8.57
2023-05-16T08:29:05.274Z,7.90
2023-05-16T08:34:09.725Z,7.60
2023-05-16T08:39:13.102Z,7.20
2023-05-16T08:44:21.793Z,7.35
2023-05-16T08:49:29.705Z,8.57
2023-05-16T08:54:33.423Z,7.97
2023-05-16T08:59:36.608Z,6.90
2023-05-16T09:04:41.681Z,8.30
2023-05-16T09:09:44.520Z,7.70
2023-05-16T09:14:47.840Z,8.23
2023-05-16T09:19:53.281Z,8.82
2023-05-16T09:24:56.274Z,6.97
2023-05-16T09:30:00.060Z,7.27
2023-05-16T09:35:02.971Z,6.35
2023-05-16T09:40:06.718Z,7.47
2023-05-16T09:45:13.265Z,7.63
2023-05-16T09:50:17.504Z,7.38
2023-05-16T09:55:20.415Z,7.27
2023-05-16T10:00:23.371Z,8.55
2023-05-16T10:05:28.158Z,6.93
2023-05-16T10:10:32.228Z,8.43
2023-05-16T10:15:38.571Z,6.80
2023-05-16T10:20:44.457Z,8.13
2023-05-16T10:25:50.475Z,7.38
2023-05-16T10:30:55.098Z,8.50
2023-05-16T10:35:58.852Z,7.00
2023-05-16T10:41:02.370Z,8.50
2023-05-16T10:46:10.181Z,6.93
2023-05-16T10:51:34.215Z,7.45
2023-05-16T10:56:37.737Z,7.15
2023-05-16T11:01:41.643Z,8.10
2023-05-16T11:06:47.014Z,7.22
2023-05-16T11:11:53.189Z,7.60
2023-05-16T11:17:09.804Z,9.13
2023-05-16T11:22:25.730Z,6.38
2023-05-16T11:27:34.381Z,8.13
2023-05-16T11:32:41.429Z,7.40
2023-05-16T11:37:45.417Z,7.33
2023-05-16T11:42:49.035Z,6.50
2023-05-16T11:47:52.336Z,9.25
2023-05-16T11:52:57.722Z,5.65
2023-05-16T11:58:00.731Z,7.35
2023-05-16T12:03:06.382Z,8.70
2023-05-16T12:08:11.441Z,8.38
2023-05-16T12:13:14.578Z,7.53
2023-05-16T12:18:18.243Z,8.45
2023-05-16T12:23:21.116Z,8.10
2023-05-16T12:28:23.883Z,8.10
2023-05-16T12:33:27.808Z,7.80
2023-05-16T12:38:30.700Z,7.82
2023-05-16T12:43:33.493Z,6.68
2023-05-16T12:48:36.235Z,7.20
2023-05-16T12:54:01.329Z,8.20
2023-05-16T12:59:14.895Z,7.05
2023-05-16T13:04:20.315Z,9.43
2023-05-16T13:09:24.063Z,7.00
2023-05-16T13:14:27.482Z,8.50
2023-05-16T13:19:32.058Z,8.00
2023-05-16T13:24:34.780Z,8.07
2023-05-16T13:29:37.769Z,8.75
2023-05-16T13:34:40.755Z,8.60
2023-05-16T13:39:43.646Z,9.13
2023-05-16T13:44:46.584Z,8.73
2023-05-16T13:49:49.377Z,9.80
2023-05-16T13:54:52.516Z,9.75
2023-05-16T14:05:02.003Z,9.95
2023-05-16T14:10:07.108Z,8.80
2023-05-16T14:15:10.550Z,9.73
2023-05-16T14:20:15.743Z,9.98
2023-05-16T14:25:18.680Z,7.78
2023-05-16T14:30:21.461Z,9.27
2023-05-16T14:35:24.296Z,8.90
2023-05-16T14:40:27.007Z,8.68
2023-05-16T14:45:30.008Z,7.50
2023-05-16T14:50:32.947Z,9.73
2023-05-16T14:55:35.828Z,8.38
2023-05-16T15:00:38.706Z,9.07
2023-05-16T15:05:41.850Z,9.48
2023-05-16T15:10:44.860Z,11.50
2023-05-16T15:15:47.727Z,10.95
2023-05-16T15:20:52.600Z,9.63
2023-05-16T15:25:55.550Z,10.93
2023-05-16T15:30:58.366Z,11.45
2023-05-16T15:36:01.729Z,14.82
2023-05-16T15:46:16.396Z,11.35
2023-05-16T15:51:19.727Z,14.07
2023-05-16T15:56:22.573Z,13.75
2023-05-16T16:01:25.516Z,13.95
2023-05-16T16:06:28.377Z,14.43
2023-05-16T16:11:31.486Z,14.20
2023-05-16T16:16:34.670Z,11.87
2023-05-16T16:21:37.613Z,9.93
2023-05-16T16:26:41.179Z,10.02
2023-05-16T16:31:44.125Z,11.05
2023-05-16T16:36:48.518Z,13.30
2023-05-16T16:41:51.330Z,12.13
2023-05-16T16:46:54.389Z,10.80
2023-05-16T16:51:58.159Z,10.98
2023-05-16T16:57:01.379Z,9.98
2023-05-16T17:02:04.246Z,7.85
2023-05-16T17:07:07.931Z,8.40
2023-05-16T17:12:19.502Z,8.65
2023-05-16T17:17:24.140Z,8.73
2023-05-16T17:22:27.040Z,7.60
2023-05-16T17:27:29.845Z,9.65
2023-05-16T17:32:32.802Z,8.20
2023-05-16T17:37:35.670Z,9.38
2023-05-16T17:42:39.015Z,10.50
2023-05-16T17:47:42.468Z,9.60
2023-05-16T17:52:45.744Z,9.15
2023-05-16T17:57:48.574Z,11.37
2023-05-16T18:02:52.519Z,10.82
2023-05-16T18:07:55.310Z,10.88
2023-05-16T18:12:58.229Z,12.38
2023-05-16T18:18:01.625Z,9.00
2023-05-16T18:23:04.392Z,9.47
2023-05-16T18:28:08.010Z,10.63
2023-05-16T18:33:11.062Z,11.93
2023-05-16T18:38:24.412Z,10.35
2023-05-16T18:43:37.538Z,11.85
2023-05-16T18:48:40.716Z,14.13
2023-05-16T18:53:43.566Z,13.70
2023-05-16T18:58:47.097Z,14.35
2023-05-16T19:03:50.347Z,13.48
2023-05-16T19:08:53.445Z,12.95
2023-05-16T19:13:56.536Z,16.07
2023-05-16T19:18:59.648Z,14.52
2023-05-16T19:24:03.409Z,14.32
2023-05-16T19:29:06.468Z,14.73
2023-05-16T19:34:09.585Z,20.00
2023-05-16T19:39:12.567Z,16.53
2023-05-16T19:44:15.412Z,19.02
2023-05-16T19:49:20.219Z,18.25
2023-05-16T19:54:23.508Z,19.33
2023-05-16T19:59:26.620Z,19.60
2023-05-16T20:04:29.742Z,20.03
2023-05-16T20:09:32.636Z,19.48
2023-05-16T20:14:35.572Z,19.30
2023-05-16T20:19:44.116Z,18.40
2023-05-16T20:24:47.172Z,19.67
2023-05-16T20:29:50.002Z,17.53
2023-05-16T20:34:52.876Z,18.33
2023-05-16T20:39:56.146Z,20.77
2023-05-16T20:44:58.996Z,16.75
2023-05-16T20:50:01.949Z,17.75
2023-05-16T20:55:05.333Z,17.73
2023-05-16T21:00:08.919Z,17.05
2023-05-16T21:05:35.023Z,15.40
2023-05-16T21:10:34.845Z,16.75
2023-05-16T21:15:38.743Z,14.52
2023-05-16T21:20:41.812Z,15.70
2023-05-16T21:25:44.874Z,13.15
2023-05-16T21:30:47.849Z,13.80
2023-05-16T21:35:50.597Z,14.63
2023-05-16T21:40:54.004Z,12.65
2023-05-16T21:45:56.728Z,12.33
2023-05-16T21:50:59.647Z,11.80
2023-05-16T21:56:02.434Z,17.25
2023-05-16T22:01:11.571Z,15.25
2023-05-16T22:06:17.353Z,13.43
2023-05-16T22:11:20.119Z,12.90
2023-05-16T22:16:22.938Z,13.35
2023-05-16T22:21:25.993Z,13.50
2023-05-16T22:26:28.980Z,14.10
2023-05-16T22:31:31.847Z,14.68
2023-05-16T22:36:34.663Z,14.60
2023-05-16T22:41:37.652Z,14.48
2023-05-16T22:46:40.637Z,13.45
2023-05-16T22:51:43.384Z,15.27
2023-05-16T22:56:46.140Z,12.52
2023-05-16T23:01:48.953Z,13.77
2023-05-16T23:06:51.767Z,13.57
2023-05-16T23:11:55.036Z,12.82
2023-05-16T23:16:57.954Z,12.90
2023-05-16T23:22:00.837Z,12.05
2023-05-16T23:27:03.820Z,12.37
2023-05-16T23:32:06.954Z,10.30
2023-05-16T23:37:09.850Z,11.18
2023-05-16T23:42:12.867Z,11.25
2023-05-16T23:47:20.937Z,11.98
2023-05-16T23:52:25.695Z,13.67
2023-05-16T23:57:28.814Z,14.02
